Time;durP1;ratioP1;P1;durP2;ratioP2;P2;SDS_P1;SDS_P2;PMS_P1;PMS_P2;Temp;Humidity;BMP_temperature;BMP_pressure;BME280_temperature;BME280_humidity;BME280_pressure;Samples;Min_cycle;Max_cycle;Signal;HPM_P1;HPM_P2
2023/05/25 00:02:06;;;;;;;7.93;3.30;;;;;;;10.81;65.72;154136.47;4984954;28;20449;-76
2023/05/25 00:04:34;;;;;;;4.10;2.80;;;;;;;10.76;65.82;154123.53;4989313;28;20452;-76
2023/05/25 00:07:00;;;;;;;5.67;3.73;;;;;;;10.75;66.04;154120.91;5004603;28;20469;-76
2023/05/25 00:09:28;;;;;;;4.50;3.03;;;;;;;10.76;66.23;154123.53;4989072;28;20943;-76
2023/05/25 00:11:55;;;;;;;7.13;4.33;;;;;;;10.71;66.60;154110.56;5010713;28;20924;-76
2023/05/25 00:14:23;;;;;;;3.97;3.37;;;;;;;10.69;66.96;154105.41;4982532;28;20450;-76
2023/05/25 00:16:50;;;;;;;4.73;3.30;;;;;;;10.65;67.10;154093.72;4970505;28;20481;-76
2023/05/25 00:19:17;;;;;;;3.90;3.50;;;;;;;10.66;66.92;154096.31;4985251;28;20457;-76
2023/05/25 00:21:47;;;;;;;6.67;3.00;;;;;;;10.63;67.61;154088.56;4987866;28;20460;-76
2023/05/25 00:24:13;;;;;;;7.20;3.80;;;;;;;10.65;67.51;154093.72;5003625;28;20552;-76
2023/05/25 00:26:41;;;;;;;4.97;2.97;;;;;;;10.68;67.42;154102.78;4991765;28;20444;-76
2023/05/25 00:29:11;;;;;;;6.17;3.43;;;;;;;10.66;67.47;154097.63;5010746;28;20448;-76
2023/05/25 00:31:38;;;;;;;9.60;3.13;;;;;;;10.68;67.82;154102.78;5004549;28;20453;-76
2023/05/25 00:34:05;;;;;;;7.30;3.50;;;;;;;10.71;67.38;154110.56;4990409;28;20988;-76
2023/05/25 00:36:31;;;;;;;7.83;3.07;;;;;;;10.68;68.19;154102.78;4991382;28;20480;-76
2023/05/25 00:38:58;;;;;;;6.23;3.33;;;;;;;10.70;67.71;154106.66;4993968;28;20467;-76
2023/05/25 00:41:25;;;;;;;5.20;3.30;;;;;;;10.74;67.62;154117.03;4993558;28;20444;-76
2023/05/25 00:43:53;;;;;;;6.53;3.40;;;;;;;10.76;67.93;154122.22;5000872;28;20581;-76
2023/05/25 00:46:21;;;;;;;6.63;3.07;;;;;;;10.75;67.85;154119.66;4993523;28;20496;-76
2023/05/25 00:48:47;;;;;;;7.50;3.20;;;;;;;10.74;67.49;154118.34;5009249;28;20457;-76
2023/05/25 00:51:15;;;;;;;5.20;3.30;;;;;;;10.70;67.94;154107.97;4990646;28;20463;-76
2023/05/25 00:53:42;;;;;;;5.40;3.30;;;;;;;10.74;67.53;154117.03;5008926;28;20816;-76
2023/05/25 00:56:12;;;;;;;6.90;2.80;;;;;;;10.62;68.72;154087.25;4992451;28;20486;-76
2023/05/25 00:58:40;;;;;;;8.00;3.50;;;;;;;10.49;68.81;154053.59;4994358;28;20886;-76
2023/05/25 01:01:10;;;;;;;6.80;3.97;;;;;;;10.56;68.94;154071.75;5000077;28;20940;-76
2023/05/25 01:03:38;;;;;;;7.97;4.17;;;;;;;10.52;68.37;154061.34;4977190;28;20960;-76
2023/05/25 01:06:07;;;;;;;5.57;3.60;;;;;;;10.55;68.06;154067.84;5008567;28;20455;-76
2023/05/25 01:08:35;;;;;;;4.17;3.40;;;;;;;10.45;68.90;154043.25;4992864;28;20475;-77
2023/05/25 01:11:03;;;;;;;5.23;3.40;;;;;;;10.45;68.94;154043.25;4992253;28;20870;-76
2023/05/25 01:13:29;;;;;;;4.33;3.13;;;;;;;10.37;69.27;154022.53;5011245;28;20521;-76
2023/05/25 01:15:57;;;;;;;3.80;3.37;;;;;;;10.34;69.74;154014.75;4989986;28;20453;-75
2023/05/25 01:18:25;;;;;;;6.60;3.60;;;;;;;10.35;69.29;154017.38;5007308;28;20539;-76
2023/05/25 01:21:11;;;;;;;5.00;3.23;;;;;;;10.38;69.37;154025.09;4992258;28;20854;-76
2023/05/25 01:23:41;;;;;;;7.80;3.93;;;;;;;10.38;69.63;154026.41;4989400;28;20457;-76
2023/05/25 01:26:12;;;;;;;6.73;3.50;;;;;;;10.38;69.20;154026.41;4988779;28;20558;-76
2023/05/25 01:28:41;;;;;;;6.20;3.50;;;;;;;10.38;69.28;154025.09;5009540;28;20468;-76
2023/05/25 01:31:08;;;;;;;6.13;3.53;;;;;;;10.42;69.51;154034.16;5010831;28;20452;-76
2023/05/25 01:33:36;;;;;;;5.83;3.67;;;;;;;10.38;69.80;154026.41;4990672;28;20967;-76
2023/05/25 01:36:04;;;;;;;3.67;3.17;;;;;;;10.35;69.62;154017.38;4989879;28;20960;-76
2023/05/25 01:38:31;;;;;;;6.73;3.60;;;;;;;10.31;70.29;154008.28;5007338;28;20456;-76
2023/05/25 01:40:58;;;;;;;4.70;3.03;;;;;;;10.30;70.00;154004.38;4976930;28;20887;-76
2023/05/25 01:43:26;;;;;;;6.20;3.73;;;;;;;10.34;70.14;154014.75;4989511;28;20473;-76
2023/05/25 01:45:58;;;;;;;8.87;3.80;;;;;;;10.20;70.81;153979.81;5000378;28;20452;-76
2023/05/25 01:48:32;;;;;;;6.70;3.33;;;;;;;10.15;71.21;153965.56;5008348;28;20479;-76
2023/05/25 01:51:02;;;;;;;5.33;3.30;;;;;;;10.20;70.92;153978.50;4990817;28;20509;-76
2023/05/25 01:53:32;;;;;;;6.93;3.80;;;;;;;10.22;70.85;153983.66;4990018;28;20467;-76
2023/05/25 01:56:00;;;;;;;6.47;3.33;;;;;;;10.18;71.27;153974.63;4973291;28;20530;-76
2023/05/25 01:58:34;;;;;;;5.03;3.83;;;;;;;10.14;71.61;153963.00;5009359;28;20809;-76
2023/05/25 02:01:01;;;;;;;9.77;5.07;;;;;;;10.10;72.20;153953.88;5000463;28;20456;-76
2023/05/25 02:03:28;;;;;;;6.10;4.00;;;;;;;10.08;71.54;153947.41;5026055;28;20572;-76
2023/05/25 02:05:56;;;;;;;5.77;3.90;;;;;;;10.09;72.17;153949.97;4991950;28;20456;-76
2023/05/25 02:08:23;;;;;;;8.37;4.57;;;;;;;10.11;71.72;153955.19;5001058;28;21311;-76
2023/05/25 02:10:51;;;;;;;4.93;4.00;;;;;;;10.08;72.17;153947.41;5023047;28;20483;-76
2023/05/25 02:13:17;;;;;;;5.37;4.37;;;;;;;10.06;72.11;153942.25;4992316;28;20837;-76
2023/05/25 02:15:44;;;;;;;6.07;4.03;;;;;;;10.04;72.52;153937.03;5007269;28;20468;-76
2023/05/25 02:18:12;;;;;;;5.13;3.77;;;;;;;9.98;72.90;153921.53;4973597;28;20480;-76
2023/05/25 02:20:39;;;;;;;6.50;4.37;;;;;;;9.96;73.26;153916.31;4989282;28;20452;-76
2023/05/25 02:23:05;;;;;;;6.13;4.13;;;;;;;9.85;73.70;153887.88;5013902;28;20464;-76
2023/05/25 02:25:32;;;;;;;5.53;4.60;;;;;;;9.84;73.92;153885.28;5023378;28;20467;-76
2023/05/25 02:28:00;;;;;;;6.80;4.20;;;;;;;9.82;73.83;153882.69;5007431;28;20559;-76
2023/05/25 02:30:26;;;;;;;5.10;4.17;;;;;;;9.85;73.93;153889.16;4992322;28;20473;-75
2023/05/25 02:32:56;;;;;;;5.53;4.03;;;;;;;9.95;73.65;153915.06;4975640;28;20456;-76
2023/05/25 02:35:23;;;;;;;6.13;3.93;;;;;;;9.89;73.80;153899.53;4982467;28;20465;-76
2023/05/25 02:37:50;;;;;;;8.23;3.90;;;;;;;9.87;74.06;153893.06;5022021;28;20483;-76
2023/05/25 02:40:18;;;;;;;5.20;4.23;;;;;;;9.86;74.17;153890.44;5010085;28;20598;-76
2023/05/25 02:42:44;;;;;;;7.60;4.10;;;;;;;9.88;74.07;153896.91;4989376;28;20832;-76
2023/05/25 02:45:12;;;;;;;5.97;4.10;;;;;;;9.87;74.52;153893.06;4988710;28;20478;-76
2023/05/25 02:47:40;;;;;;;4.53;3.73;;;;;;;9.82;74.55;153880.13;4972092;28;20863;-76
2023/05/25 02:50:07;;;;;;;9.80;4.50;;;;;;;9.78;74.80;153872.34;4991364;28;20479;-76
2023/05/25 02:52:39;;;;;;;6.30;4.33;;;;;;;9.72;75.25;153856.81;5010030;28;20478;-75
2023/05/25 02:55:08;;;;;;;7.30;4.67;;;;;;;9.70;75.52;153850.34;4967909;28;20563;-76
2023/05/25 02:57:37;;;;;;;4.83;4.10;;;;;;;9.70;75.58;153851.63;4975640;28;20554;-75
2023/05/25 03:00:07;;;;;;;5.43;4.03;;;;;;;9.69;75.65;153849.03;4974404;28;20452;-76
2023/05/25 03:02:35;;;;;;;7.83;4.93;;;;;;;9.65;76.20;153837.41;4987297;28;20460;-76
2023/05/25 03:05:02;;;;;;;6.20;5.17;;;;;;;9.69;75.95;153847.72;4973695;28;20464;-76
2023/05/25 03:07:29;;;;;;;7.30;4.27;;;;;;;9.68;75.98;153845.16;4982464;28;20530;-76
2023/05/25 03:09:57;;;;;;;8.63;5.00;;;;;;;9.65;76.27;153837.41;4973348;28;20875;-75
2023/05/25 03:12:23;;;;;;;5.30;4.47;;;;;;;9.61;76.52;153828.34;4990942;28;20792;-76
2023/05/25 03:14:50;;;;;;;9.63;4.60;;;;;;;9.58;76.99;153820.56;4975541;28;20440;-76
2023/05/25 03:17:17;;;;;;;5.87;4.07;;;;;;;9.55;77.40;153812.84;5009413;28;20853;-76
2023/05/25 03:19:45;;;;;;;6.07;5.10;;;;;;;9.50;77.72;153799.91;4989365;28;20463;-76
2023/05/25 03:22:12;;;;;;;5.57;4.73;;;;;;;9.44;78.00;153784.38;4989072;28;20472;-75
2023/05/25 03:24:40;;;;;;;7.50;4.60;;;;;;;9.43;78.48;153780.47;4987325;28;20457;-76
2023/05/25 03:27:07;;;;;;;7.23;4.47;;;;;;;9.43;78.55;153781.75;5007318;28;20456;-75
2023/05/25 03:29:34;;;;;;;6.83;5.23;;;;;;;9.40;78.64;153772.75;4978990;28;20558;-76
2023/05/25 03:32:00;;;;;;;5.00;4.43;;;;;;;9.34;78.98;153758.50;4974458;28;20466;-76
2023/05/25 03:34:28;;;;;;;6.80;5.00;;;;;;;9.29;79.39;153745.59;4975534;28;20978;-76
2023/05/25 03:36:56;;;;;;;7.20;4.70;;;;;;;9.29;79.77;153745.59;4990332;28;20486;-76
2023/05/25 03:39:23;;;;;;;7.77;5.03;;;;;;;9.29;79.87;153744.28;4969264;28;20472;-76
2023/05/25 03:41:51;;;;;;;8.63;5.03;;;;;;;9.26;79.89;153737.81;4983351;28;20826;-76
2023/05/25 03:44:18;;;;;;;7.83;5.10;;;;;;;9.28;80.13;153742.97;5002894;28;20485;-76
2023/05/25 03:46:45;;;;;;;8.17;5.00;;;;;;;9.27;80.34;153740.38;4988082;28;20450;-76
2023/05/25 03:49:13;;;;;;;6.80;5.07;;;;;;;9.27;80.33;153739.06;4971406;28;20468;-76
2023/05/25 03:51:40;;;;;;;6.37;4.37;;;;;;;9.26;80.47;153737.81;4988036;28;20447;-76
2023/05/25 03:54:08;;;;;;;8.57;5.43;;;;;;;9.28;80.42;153741.69;4986391;28;20585;-75
2023/05/25 03:56:35;;;;;;;9.23;4.93;;;;;;;9.22;80.94;153727.44;4987551;28;20463;-76
2023/05/25 03:59:05;;;;;;;5.70;4.60;;;;;;;9.30;80.67;153746.84;5004808;28;20486;-76
2023/05/25 04:01:31;;;;;;;8.97;5.70;;;;;;;9.33;80.50;153755.91;4984965;28;20470;-76
2023/05/25 04:03:58;;;;;;;9.03;5.07;;;;;;;9.35;80.31;153759.75;4988246;28;20477;-75
2023/05/25 04:06:25;;;;;;;8.30;5.37;;;;;;;9.36;80.36;153763.66;5006491;28;20916;-76
2023/05/25 04:08:51;;;;;;;9.00;4.87;;;;;;;9.35;80.52;153761.06;5006398;28;20559;-76
2023/05/25 04:11:21;;;;;;;11.00;5.30;;;;;;;9.40;80.56;153772.75;5008202;28;20461;-76
2023/05/25 04:13:48;;;;;;;7.50;5.63;;;;;;;9.46;80.19;153789.53;4991086;28;20440;-75
2023/05/25 04:16:14;;;;;;;9.27;6.00;;;;;;;9.44;80.24;153783.06;5007224;28;20456;-75
2023/05/25 04:18:41;;;;;;;6.43;4.37;;;;;;;9.45;80.15;153785.69;4977873;28;20605;-76
2023/05/25 04:21:08;;;;;;;7.10;5.50;;;;;;;9.45;80.12;153786.94;4973824;28;20460;-76
2023/05/25 04:23:34;;;;;;;8.20;4.83;;;;;;;9.43;80.14;153781.75;5006712;28;20476;-76
2023/05/25 04:26:02;;;;;;;7.10;4.90;;;;;;;9.33;80.80;153755.91;4973426;28;20526;-76
2023/05/25 04:28:30;;;;;;;7.27;4.73;;;;;;;9.38;81.33;153768.84;4990420;28;20547;-76
2023/05/25 04:31:17;;;;;;;6.33;5.20;;;;;;;9.55;80.79;153811.53;4983627;28;20553;-76
2023/05/25 04:34:01;;;;;;;6.10;4.30;;;;;;;9.67;80.63;153843.88;4989792;28;20905;-76
2023/05/25 04:36:31;;;;;;;9.00;5.47;;;;;;;10.00;78.93;153926.69;4977863;28;20543;-76
2023/05/25 04:39:01;;;;;;;8.00;5.27;;;;;;;10.20;78.23;153978.50;4986757;28;20894;-76
2023/05/25 04:41:29;;;;;;;8.53;5.20;;;;;;;10.35;77.45;154018.63;4988918;28;20563;-76
2023/05/25 04:44:02;;;;;;;7.50;5.00;;;;;;;10.37;77.72;154022.53;4990224;28;20543;-76
2023/05/25 04:46:30;;;;;;;11.50;4.87;;;;;;;10.53;76.49;154063.97;5006029;28;20451;-76
2023/05/25 04:48:57;;;;;;;4.93;4.43;;;;;;;10.59;76.41;154079.47;4974590;28;20449;-76
2023/05/25 04:51:25;;;;;;;8.10;4.80;;;;;;;10.70;76.31;154106.66;4986673;28;20461;-76
2023/05/25 04:53:51;;;;;;;7.20;5.80;;;;;;;10.72;75.61;154111.88;5008952;28;20542;-76
2023/05/25 04:56:21;;;;;;;9.40;5.07;;;;;;;10.83;75.42;154141.63;4990367;28;20448;-76
2023/05/25 04:58:47;;;;;;;11.40;5.97;;;;;;;10.94;74.94;154170.13;4973710;28;20496;-77
2023/05/25 05:01:15;;;;;;;7.43;4.87;;;;;;;11.01;74.39;154188.25;4968003;28;20477;-76
2023/05/25 05:03:41;;;;;;;9.20;5.37;;;;;;;10.97;74.60;154177.91;5003642;28;20449;-76
2023/05/25 05:06:09;;;;;;;6.27;5.37;;;;;;;11.03;74.18;154192.16;4969982;28;20871;-76
2023/05/25 05:08:37;;;;;;;6.50;4.83;;;;;;;11.15;73.78;154223.22;5003434;28;20465;-76
2023/05/25 05:11:03;;;;;;;10.00;5.20;;;;;;;11.19;74.04;154232.31;5007321;28;20882;-77
2023/05/25 05:13:30;;;;;;;9.37;5.60;;;;;;;11.25;73.48;154247.88;5005664;28;20984;-77
2023/05/25 05:15:56;;;;;;;7.43;5.30;;;;;;;11.32;73.60;154266.00;4992312;28;20480;-75
2023/05/25 05:18:24;;;;;;;9.47;4.70;;;;;;;11.41;72.97;154289.34;4992872;28;20481;-77
2023/05/25 05:20:51;;;;;;;10.70;5.13;;;;;;;11.37;73.11;154278.94;4995534;28;20523;-76
2023/05/25 05:23:18;;;;;;;6.90;4.80;;;;;;;11.34;73.45;154272.47;4994380;28;20460;-76
2023/05/25 05:25:45;;;;;;;9.80;5.67;;;;;;;11.41;73.69;154289.34;4997871;28;20446;-76
2023/05/25 05:28:12;;;;;;;8.70;4.83;;;;;;;11.48;73.48;154307.47;4976639;28;20962;-76
2023/05/25 05:30:40;;;;;;;7.37;4.90;;;;;;;11.52;72.87;154319.09;4980415;28;20542;-76
2023/05/25 05:33:07;;;;;;;9.13;6.20;;;;;;;11.73;73.00;154371.03;4997653;28;20451;-76
2023/05/25 05:35:44;;;;;;;7.40;5.40;;;;;;;11.88;72.09;154409.88;4993999;28;20879;-76
2023/05/25 05:38:14;;;;;;;9.93;5.50;;;;;;;11.94;71.48;154426.72;4990467;28;20819;-76
2023/05/25 05:40:42;;;;;;;7.77;4.77;;;;;;;11.98;71.63;154435.81;4994292;28;20497;-76
2023/05/25 05:43:10;;;;;;;13.20;5.70;;;;;;;12.03;71.41;154450.06;4977941;28;20479;-76
2023/05/25 05:45:36;;;;;;;9.60;5.57;;;;;;;12.10;71.45;154466.88;4973621;28;20809;-76
2023/05/25 05:48:03;;;;;;;6.57;5.30;;;;;;;12.07;71.45;154460.41;5001368;28;20458;-76
2023/05/25 05:50:31;;;;;;;7.70;5.20;;;;;;;12.17;71.14;154486.38;4976253;28;20442;-76
2023/05/25 05:52:58;;;;;;;8.67;5.50;;;;;;;12.28;70.42;154513.59;4990903;28;20818;-76
2023/05/25 05:55:25;;;;;;;10.00;5.30;;;;;;;12.42;70.72;154548.56;5002141;28;20475;-76
2023/05/25 05:57:53;;;;;;;7.27;5.60;;;;;;;12.53;69.31;154578.41;5007778;28;20541;-76
2023/05/25 06:00:20;;;;;;;9.70;5.70;;;;;;;12.26;70.46;154508.38;4990223;28;20460;-86
2023/05/25 06:02:47;;;;;;;7.10;5.77;;;;;;;12.22;70.78;154498.03;4990469;28;20476;-86
2023/05/25 06:05:19;;;;;;;9.80;6.63;;;;;;;12.35;71.15;154530.44;4990755;28;20467;-86
2023/05/25 06:07:46;;;;;;;7.50;5.63;;;;;;;12.50;70.08;154570.63;4991402;28;20451;-86
2023/05/25 06:10:14;;;;;;;7.97;6.30;;;;;;;12.71;69.54;154623.78;4972589;28;20486;-86
2023/05/25 06:12:43;;;;;;;6.87;5.50;;;;;;;12.72;69.93;154626.41;4989981;28;20462;-86
2023/05/25 06:15:10;;;;;;;9.63;5.90;;;;;;;12.96;69.70;154688.66;4996007;28;20537;-86
2023/05/25 06:17:38;;;;;;;9.97;5.97;;;;;;;13.13;69.48;154731.53;4989748;28;20517;-87
2023/05/25 06:20:13;;;;;;;10.30;5.70;;;;;;;13.47;67.97;154818.47;4975552;28;20464;-86
2023/05/25 06:22:40;;;;;;;9.93;5.33;;;;;;;13.65;67.78;154865.19;4977282;28;20468;-86
2023/05/25 06:25:09;;;;;;;7.20;5.83;;;;;;;13.75;67.64;154891.13;5004412;28;20449;-86
2023/05/25 06:27:37;;;;;;;5.93;5.30;;;;;;;13.62;66.58;154858.69;4970075;28;20552;-85
2023/05/25 06:30:05;;;;;;;10.00;6.00;;;;;;;13.39;67.76;154800.31;4992255;28;20488;-86
2023/05/25 06:32:31;;;;;;;8.67;5.70;;;;;;;13.52;67.77;154831.44;4974088;28;20482;-86
2023/05/25 06:34:58;;;;;;;12.00;6.83;;;;;;;13.78;67.35;154900.22;5007877;28;20456;-86
2023/05/25 06:37:24;;;;;;;11.00;6.50;;;;;;;14.07;66.59;154972.91;4975440;28;20457;-86
2023/05/25 06:39:51;;;;;;;9.00;5.90;;;;;;;14.09;66.14;154979.41;4973150;28;20730;-86
2023/05/25 06:42:18;;;;;;;9.03;5.77;;;;;;;14.11;65.27;154983.31;4993928;28;20440;-86
2023/05/25 06:44:53;;;;;;;9.80;5.80;;;;;;;13.95;66.61;154943.09;4990685;28;20465;-86
2023/05/25 06:47:20;;;;;;;9.83;5.73;;;;;;;14.20;66.81;155006.66;4987220;28;20784;-86
2023/05/25 06:49:47;;;;;;;10.07;7.03;;;;;;;14.49;64.95;155082.03;5021733;28;20453;-86
2023/05/25 06:52:13;;;;;;;11.00;6.10;;;;;;;14.45;64.26;155072.97;5000463;28;20462;-85
2023/05/25 06:54:40;;;;;;;8.17;6.17;;;;;;;14.25;65.46;155019.66;5007384;28;20468;-85
2023/05/25 06:57:06;;;;;;;7.37;6.07;;;;;;;14.25;65.63;155019.66;5002888;28;20454;-86
2023/05/25 06:59:33;;;;;;;9.20;6.67;;;;;;;13.95;66.50;154944.34;4973904;28;20477;-86
2023/05/25 07:02:01;;;;;;;8.33;6.00;;;;;;;13.78;67.70;154898.91;4968845;28;20461;-85
2023/05/25 07:04:28;;;;;;;10.20;6.20;;;;;;;13.47;68.78;154818.47;4980328;28;20453;-85
2023/05/25 07:06:54;;;;;;;11.93;6.60;;;;;;;13.23;70.32;154758.78;5017790;28;20450;-85
2023/05/25 07:09:21;;;;;;;12.93;6.30;;;;;;;13.23;70.99;154757.47;4972797;28;21026;-85
2023/05/25 07:11:47;;;;;;;9.93;7.33;;;;;;;13.23;70.63;154758.78;4985801;28;20455;-85
2023/05/25 07:14:14;;;;;;;9.53;6.47;;;;;;;13.18;71.50;154745.81;5007964;28;20952;-86
2023/05/25 07:16:41;;;;;;;9.00;6.40;;;;;;;13.22;71.89;154754.88;5009184;28;20520;-85
2023/05/25 07:19:08;;;;;;;9.10;6.33;;;;;;;13.23;71.50;154758.78;5018535;28;20483;-85
2023/05/25 07:21:35;;;;;;;9.37;6.10;;;;;;;13.26;72.20;154765.28;4996420;28;20487;-85
2023/05/25 07:24:02;;;;;;;13.10;6.63;;;;;;;13.34;71.87;154786.03;4993849;28;20460;-85
2023/05/25 07:26:28;;;;;;;10.90;7.10;;;;;;;13.26;71.97;154766.53;4972998;28;20449;-86
2023/05/25 07:28:55;;;;;;;10.53;7.07;;;;;;;13.16;72.68;154739.28;4990160;28;20453;-85
2023/05/25 07:31:22;;;;;;;12.03;6.70;;;;;;;13.12;73.33;154728.94;4996345;28;20455;-85
2023/05/25 07:33:48;;;;;;;12.50;6.80;;;;;;;13.25;73.21;154762.66;4991658;28;20975;-85
2023/05/25 07:36:16;;;;;;;11.70;7.40;;;;;;;13.19;72.89;154748.38;4977266;28;20559;-85
2023/05/25 07:38:43;;;;;;;8.90;6.30;;;;;;;13.19;73.05;154748.38;4993359;28;20476;-85
2023/05/25 07:41:12;;;;;;;9.47;6.37;;;;;;;13.23;73.27;154758.78;4994851;28;20986;-85
2023/05/25 07:43:38;;;;;;;8.67;6.20;;;;;;;13.18;73.65;154745.81;4986355;28;20903;-86
2023/05/25 07:46:05;;;;;;;8.57;6.23;;;;;;;13.18;73.54;154745.81;4970880;28;20464;-86
2023/05/25 07:48:32;;;;;;;10.00;7.17;;;;;;;13.26;73.92;154766.53;4999536;28;20462;-86
2023/05/25 07:50:58;;;;;;;12.13;7.13;;;;;;;13.24;73.11;154761.34;5004976;28;20457;-86
2023/05/25 07:53:26;;;;;;;9.30;6.67;;;;;;;13.17;73.85;154743.22;4991911;28;20469;-86
2023/05/25 07:55:53;;;;;;;9.60;7.13;;;;;;;13.31;73.65;154778.25;5005168;28;20535;-87
2023/05/25 07:58:20;;;;;;;8.63;6.60;;;;;;;13.54;73.22;154836.63;4975590;28;20492;-86
2023/05/25 08:00:48;;;;;;;10.97;7.00;;;;;;;13.97;71.98;154949.56;5010888;28;20464;-87
2023/05/25 08:03:15;;;;;;;11.23;7.47;;;;;;;14.26;70.39;155022.25;5008366;28;20499;-86
2023/05/25 08:05:42;;;;;;;11.27;8.17;;;;;;;14.68;69.48;155130.09;4990669;28;20552;-87
2023/05/25 08:08:09;;;;;;;12.27;7.13;;;;;;;14.95;68.24;155200.25;5003955;28;20457;-86
2023/05/25 08:10:37;;;;;;;14.27;7.70;;;;;;;15.04;67.33;155223.63;5000811;28;20480;-87
2023/05/25 08:13:03;;;;;;;8.27;7.10;;;;;;;14.89;67.97;155185.97;5029285;28;20458;-86
2023/05/25 08:15:30;;;;;;;10.30;7.53;;;;;;;15.05;68.13;155226.22;4985931;28;20528;-86
2023/05/25 08:17:56;;;;;;;11.43;7.10;;;;;;;15.38;68.11;155311.97;4988721;28;20466;-86
2023/05/25 08:20:24;;;;;;;9.07;7.40;;;;;;;15.75;66.73;155408.22;4986969;28;20546;-87
2023/05/25 08:22:52;;;;;;;13.40;7.47;;;;;;;15.86;66.22;155434.25;5012490;28;20474;-87
2023/05/25 08:25:19;;;;;;;10.10;8.10;;;;;;;15.79;65.18;155418.63;5006031;28;20981;-87
2023/05/25 08:27:47;;;;;;;10.53;7.60;;;;;;;15.81;66.91;155422.53;5010797;28;20553;-87
2023/05/25 08:30:14;;;;;;;12.00;7.67;;;;;;;16.13;65.04;155504.44;4998860;28;20897;-87
2023/05/25 08:32:40;;;;;;;8.00;6.77;;;;;;;16.24;65.78;155533.06;4963485;28;20460;-87
2023/05/25 08:35:07;;;;;;;10.13;6.07;;;;;;;16.64;63.92;155637.16;4959572;28;20447;-88
2023/05/25 08:37:34;;;;;;;24.00;8.37;;;;;;;16.80;63.23;155677.47;4961104;28;20464;-87
2023/05/25 08:40:01;;;;;;;10.67;7.80;;;;;;;16.82;63.64;155684.00;4981215;28;20564;-87
2023/05/25 08:42:27;;;;;;;9.00;7.80;;;;;;;16.82;62.81;155682.69;4987822;28;20485;-88
2023/05/25 08:44:57;;;;;;;10.53;8.80;;;;;;;16.79;63.29;155676.19;4983459;28;20453;-87
2023/05/25 08:47:24;;;;;;;9.07;8.10;;;;;;;16.80;63.53;155678.78;5023923;28;20642;-88
2023/05/25 08:49:51;;;;;;;11.83;7.27;;;;;;;16.94;63.29;155713.94;4994667;28;20472;-88
2023/05/25 08:52:22;;;;;;;10.77;8.43;;;;;;;16.90;63.65;155704.81;5012347;28;20790;-88
2023/05/25 08:54:50;;;;;;;8.47;6.87;;;;;;;17.11;63.86;155756.84;4986411;28;20448;-88
2023/05/25 08:57:20;;;;;;;13.40;8.07;;;;;;;17.08;62.87;155749.06;4979959;28;20468;-88
2023/05/25 08:59:50;;;;;;;11.77;7.73;;;;;;;16.79;63.95;155674.88;4999979;28;21051;-88
2023/05/25 09:02:23;;;;;;;10.53;7.30;;;;;;;16.61;64.08;155629.34;5013770;28;20835;-87
2023/05/25 09:04:50;;;;;;;11.13;8.27;;;;;;;16.47;64.66;155592.88;4994984;28;20471;-87
2023/05/25 09:07:20;;;;;;;11.73;7.40;;;;;;;16.42;65.30;155581.16;4999520;28;20526;-88
2023/05/25 09:09:47;;;;;;;13.80;8.57;;;;;;;16.57;64.89;155618.97;5002797;28;20472;-87
2023/05/25 09:12:15;;;;;;;10.93;7.13;;;;;;;16.48;65.82;155595.47;5036514;28;20982;-88
2023/05/25 09:14:44;;;;;;;9.47;7.87;;;;;;;16.38;65.85;155569.47;4990149;28;20460;-87
2023/05/25 09:17:12;;;;;;;14.17;9.00;;;;;;;16.43;65.88;155582.47;4980463;28;20503;-88
2023/05/25 09:19:40;;;;;;;10.77;7.27;;;;;;;16.50;66.61;155600.66;4992221;28;20475;-88
2023/05/25 09:22:06;;;;;;;13.60;7.60;;;;;;;16.57;65.78;155618.97;5000858;28;20452;-87
2023/05/25 09:24:33;;;;;;;9.67;8.63;;;;;;;16.66;65.42;155642.34;5008458;28;20452;-88
2023/05/25 09:26:59;;;;;;;13.30;8.47;;;;;;;16.82;65.25;155684.00;5001055;28;20955;-88
2023/05/25 09:29:26;;;;;;;12.67;9.07;;;;;;;16.95;64.65;155717.81;4997286;28;20451;-88
2023/05/25 09:31:53;;;;;;;11.27;8.27;;;;;;;16.95;64.48;155717.81;4994965;28;20514;-88
2023/05/25 09:34:20;;;;;;;9.67;8.17;;;;;;;16.95;64.75;155717.81;5010430;28;20464;-88
2023/05/25 09:36:48;;;;;;;10.70;8.40;;;;;;;17.02;65.76;155736.00;5014255;28;20465;-88
2023/05/25 09:39:15;;;;;;;12.63;8.20;;;;;;;17.25;64.20;155794.59;5000446;28;20503;-88
2023/05/25 09:41:42;;;;;;;11.50;8.37;;;;;;;17.09;64.38;155751.63;4995457;28;20546;-88
2023/05/25 09:44:09;;;;;;;9.70;7.40;;;;;;;17.07;64.66;155746.44;5011190;28;20463;-88
2023/05/25 09:46:37;;;;;;;8.33;7.43;;;;;;;17.01;64.38;155732.13;5009310;28;20460;-87
2023/05/25 09:49:06;;;;;;;10.10;7.50;;;;;;;17.03;65.91;155737.31;4995046;28;20454;-88
2023/05/25 09:51:34;;;;;;;11.27;7.93;;;;;;;16.97;64.33;155721.75;5007794;28;20467;-87
2023/05/25 09:54:02;;;;;;;9.73;7.97;;;;;;;16.80;65.83;155677.47;4979796;28;20762;-87
2023/05/25 09:56:30;;;;;;;11.00;7.43;;;;;;;16.87;65.15;155695.69;4994271;28;20978;-87
2023/05/25 09:58:57;;;;;;;11.10;7.90;;;;;;;16.85;65.90;155691.81;5015113;28;20476;-87
2023/05/25 10:01:24;;;;;;;12.30;7.87;;;;;;;16.92;65.76;155710.00;5005696;28;20445;-87
2023/05/25 10:03:55;;;;;;;11.80;8.00;;;;;;;17.00;65.38;155729.50;5002452;28;20469;-87
2023/05/25 10:06:21;;;;;;;12.50;7.23;;;;;;;17.00;65.64;155730.81;4992935;28;20421;-87
2023/05/25 10:08:49;;;;;;;8.20;7.40;;;;;;;17.02;65.79;155734.75;5001238;28;20496;-87
2023/05/25 10:11:17;;;;;;;10.97;7.80;;;;;;;17.25;65.20;155794.59;5003547;28;20469;-86
2023/05/25 10:13:45;;;;;;;8.40;7.10;;;;;;;17.30;64.97;155806.28;5001602;28;20456;-87
2023/05/25 10:16:16;;;;;;;9.80;7.40;;;;;;;17.40;64.71;155833.63;5008362;28;20861;-86
2023/05/25 10:18:47;;;;;;;11.03;8.23;;;;;;;17.56;65.15;155874.03;4995934;28;20453;-86
2023/05/25 10:21:16;;;;;;;10.00;8.13;;;;;;;17.46;64.68;155849.25;5020550;28;20471;-87
2023/05/25 10:23:46;;;;;;;10.17;7.83;;;;;;;17.71;63.06;155913.13;4995958;28;20461;-86
2023/05/25 10:26:18;;;;;;;15.20;7.63;;;;;;;17.72;63.49;155914.38;4997271;28;21065;-87
2023/05/25 10:28:46;;;;;;;10.23;6.97;;;;;;;17.64;63.79;155894.84;4992690;28;20527;-87
2023/05/25 10:31:13;;;;;;;8.50;6.77;;;;;;;17.74;63.98;155919.63;4988600;28;20511;-87
2023/05/25 10:33:40;;;;;;;9.40;7.90;;;;;;;17.96;63.00;155978.19;4993487;28;20468;-87
2023/05/25 10:36:07;;;;;;;9.20;7.57;;;;;;;18.24;62.95;156051.09;5002511;28;20446;-87
2023/05/25 10:38:34;;;;;;;9.03;6.67;;;;;;;18.48;62.67;156111.09;5008040;28;20464;-87
2023/05/25 10:41:02;;;;;;;9.87;7.20;;;;;;;18.64;61.07;156152.75;5023913;28;20475;-87
2023/05/25 10:43:30;;;;;;;7.87;6.27;;;;;;;18.59;61.88;156141.03;4974028;28;20473;-87
2023/05/25 10:45:57;;;;;;;7.93;7.17;;;;;;;18.43;62.24;156099.28;4993475;28;20465;-87
2023/05/25 10:48:24;;;;;;;8.97;7.60;;;;;;;18.48;62.30;156111.09;5002895;28;20465;-87
2023/05/25 10:50:51;;;;;;;9.97;7.07;;;;;;;18.49;61.35;156113.66;5007640;28;20457;-87
2023/05/25 10:53:20;;;;;;;9.20;7.00;;;;;;;18.44;62.32;156100.59;5003060;28;20452;-87
2023/05/25 10:55:49;;;;;;;8.63;7.43;;;;;;;18.38;61.59;156084.97;5009603;28;20457;-87
2023/05/25 10:58:17;;;;;;;8.90;7.33;;;;;;;18.41;62.30;156092.78;5006008;28;20476;-87
2023/05/25 11:00:57;;;;;;;11.20;7.03;;;;;;;18.42;62.73;156095.41;5015647;28;20814;-87
2023/05/25 11:03:48;;;;;;;9.60;7.60;;;;;;;18.54;62.23;156128.00;5004484;28;20469;-88
2023/05/25 11:06:16;;;;;;;10.00;7.13;;;;;;;18.59;62.17;156141.03;5035103;28;20444;-88
2023/05/25 11:08:50;;;;;;;9.87;6.37;;;;;;;18.44;62.05;156100.59;4980820;28;20461;-87
2023/05/25 11:11:17;;;;;;;9.53;6.97;;;;;;;18.37;62.81;156082.38;4996106;28;20548;-87
2023/05/25 11:13:44;;;;;;;7.27;6.13;;;;;;;18.47;62.63;156109.78;5006919;28;20545;-87
2023/05/25 11:16:17;;;;;;;9.43;6.80;;;;;;;18.57;61.47;156134.53;4995437;28;20460;-87
2023/05/25 11:18:45;;;;;;;8.27;7.03;;;;;;;18.46;61.88;156105.81;5005720;28;20461;-87
2023/05/25 11:21:13;;;;;;;11.23;7.00;;;;;;;18.49;62.18;156113.66;4975706;28;20502;-87
2023/05/25 11:23:52;;;;;;;9.37;7.13;;;;;;;18.47;62.71;156109.78;4988017;28;20461;-87
2023/05/25 11:26:20;;;;;;;9.20;7.00;;;;;;;18.58;62.91;156138.44;5019548;28;20543;-87
2023/05/25 11:28:47;;;;;;;8.90;6.83;;;;;;;18.66;62.05;156158.00;4992123;28;20861;-87